sensor_id;sensor_type;location;lat;lon;timestamp;pressure;altitude;pressure_sealevel;temperature;humidity
21824;BME280;11074;48.596;9.238;2023-10-19T00:01:57;96655.47;;;11.96;100.00
21824;BME280;11074;48.596;9.238;2023-10-19T00:04:27;96657.56;;;11.85;100.00
21824;BME280;11074;48.596;9.238;2023-10-19T00:06:57;96659.63;;;11.88;100.00
21824;BME280;11074;48.596;9.238;2023-10-19T00:09:23;96656.38;;;11.91;100.00
21824;BME280;11074;48.596;9.238;2023-10-19T00:11:50;96654.50;;;11.92;100.00
21824;BME280;11074;48.596;9.238;2023-10-19T00:14:18;96648.81;;;11.93;100.00
21824;BME280;11074;48.596;9.238;2023-10-19T00:16:44;96652.91;;;11.91;100.00
21824;BME280;11074;48.596;9.238;2023-10-19T00:19:19;96639.50;;;11.91;100.00
21824;BME280;11074;48.596;9.238;2023-10-19T00:21:46;96641.28;;;11.95;100.00
21824;BME280;11074;48.596;9.238;2023-10-19T00:24:21;96637.81;;;11.95;100.00
21824;BME280;11074;48.596;9.238;2023-10-19T00:26:49;96641.09;;;11.92;100.00
21824;BME280;11074;48.596;9.238;2023-10-19T00:29:19;96628.47;;;11.92;100.00
21824;BME280;11074;48.596;9.238;2023-10-19T00:32:00;96631.38;;;11.96;100.00
21824;BME280;11074;48.596;9.238;2023-10-19T00:34:27;96634.84;;;11.96;100.00
21824;BME280;11074;48.596;9.238;2023-10-19T00:36:56;96629.50;;;11.96;100.00
21824;BME280;11074;48.596;9.238;2023-10-19T00:39:23;96635.06;;;12.00;100.00
21824;BME280;11074;48.596;9.238;2023-10-19T00:41:52;96618.56;;;11.93;100.00
21824;BME280;11074;48.596;9.238;2023-10-19T00:44:24;96608.16;;;11.91;100.00
21824;BME280;11074;48.596;9.238;2023-10-19T00:47:03;96598.75;;;11.94;100.00
21824;BME280;11074;48.596;9.238;2023-10-19T00:49:30;96591.31;;;11.91;100.00
21824;BME280;11074;48.596;9.238;2023-10-19T00:51:59;96602.81;;;11.91;100.00
21824;BME280;11074;48.596;9.238;2023-10-19T00:54:38;96614.31;;;11.92;100.00
21824;BME280;11074;48.596;9.238;2023-10-19T00:57:18;96629.69;;;11.86;100.00
21824;BME280;11074;48.596;9.238;2023-10-19T00:59:58;96611.44;;;11.88;100.00
21824;BME280;11074;48.596;9.238;2023-10-19T01:02:48;96611.81;;;11.95;100.00
21824;BME280;11074;48.596;9.238;2023-10-19T01:05:17;96608.66;;;11.93;100.00
21824;BME280;11074;48.596;9.238;2023-10-19T01:07:47;96592.00;;;11.96;100.00
21824;BME280;11074;48.596;9.238;2023-10-19T01:10:18;96585.63;;;11.92;100.00
21824;BME280;11074;48.596;9.238;2023-10-19T01:12:49;96562.81;;;11.95;100.00
21824;BME280;11074;48.596;9.238;2023-10-19T01:15:20;96570.25;;;11.98;100.00
21824;BME280;11074;48.596;9.238;2023-10-19T01:17:57;96571.38;;;11.83;100.00
21824;BME280;11074;48.596;9.238;2023-10-19T01:20:27;96560.47;;;11.93;100.00
21824;BME280;11074;48.596;9.238;2023-10-19T01:22:59;96540.63;;;11.94;100.00
21824;BME280;11074;48.596;9.238;2023-10-19T01:25:58;96534.69;;;11.97;100.00
21824;BME280;11074;48.596;9.238;2023-10-19T01:28:30;96539.59;;;12.04;100.00
21824;BME280;11074;48.596;9.238;2023-10-19T01:31:13;96549.34;;;12.00;100.00
21824;BME280;11074;48.596;9.238;2023-10-19T01:33:43;96546.75;;;11.95;100.00
21824;BME280;11074;48.596;9.238;2023-10-19T01:36:11;96529.41;;;11.92;100.00
21824;BME280;11074;48.596;9.238;2023-10-19T01:38:38;96528.69;;;12.00;100.00
21824;BME280;11074;48.596;9.238;2023-10-19T01:41:06;96517.50;;;11.98;100.00
21824;BME280;11074;48.596;9.238;2023-10-19T01:43:46;96535.16;;;11.99;100.00
21824;BME280;11074;48.596;9.238;2023-10-19T01:46:14;96510.47;;;12.02;100.00
21824;BME280;11074;48.596;9.238;2023-10-19T01:48:49;96515.81;;;12.02;100.00
21824;BME280;11074;48.596;9.238;2023-10-19T01:51:23;96506.66;;;12.03;100.00
21824;BME280;11074;48.596;9.238;2023-10-19T01:53:49;96497.94;;;11.98;100.00
21824;BME280;11074;48.596;9.238;2023-10-19T01:56:16;96507.47;;;12.04;100.00
21824;BME280;11074;48.596;9.238;2023-10-19T01:58:45;96506.66;;;12.03;100.00
21824;BME280;11074;48.596;9.238;2023-10-19T02:01:16;96496.28;;;12.02;100.00
21824;BME280;11074;48.596;9.238;2023-10-19T02:03:55;96511.44;;;12.06;100.00
21824;BME280;11074;48.596;9.238;2023-10-19T02:06:30;96506.75;;;12.12;100.00
21824;BME280;11074;48.596;9.238;2023-10-19T02:09:09;96505.47;;;12.09;100.00
21824;BME280;11074;48.596;9.238;2023-10-19T02:11:56;96501.41;;;12.12;100.00
21824;BME280;11074;48.596;9.238;2023-10-19T02:14:24;96499.03;;;12.10;100.00
21824;BME280;11074;48.596;9.238;2023-10-19T02:16:56;96494.84;;;12.18;100.00
21824;BME280;11074;48.596;9.238;2023-10-19T02:19:23;96489.28;;;12.14;100.00
21824;BME280;11074;48.596;9.238;2023-10-19T02:21:54;96488.19;;;12.15;100.00
21824;BME280;11074;48.596;9.238;2023-10-19T02:24:21;96478.09;;;12.12;100.00
21824;BME280;11074;48.596;9.238;2023-10-19T02:26:50;96481.44;;;12.18;100.00
21824;BME280;11074;48.596;9.238;2023-10-19T02:29:20;96470.03;;;12.12;100.00
21824;BME280;11074;48.596;9.238;2023-10-19T02:31:50;96481.25;;;12.14;100.00
21824;BME280;11074;48.596;9.238;2023-10-19T02:34:16;96473.69;;;12.16;100.00
21824;BME280;11074;48.596;9.238;2023-10-19T02:36:44;96468.34;;;12.16;100.00
21824;BME280;11074;48.596;9.238;2023-10-19T02:39:12;96477.78;;;12.14;100.00
21824;BME280;11074;48.596;9.238;2023-10-19T02:41:46;96485.31;;;12.12;100.00
21824;BME280;11074;48.596;9.238;2023-10-19T02:44:19;96483.63;;;12.16;100.00
21824;BME280;11074;48.596;9.238;2023-10-19T02:46:55;96481.25;;;12.14;100.00
21824;BME280;11074;48.596;9.238;2023-10-19T02:49:34;96477.81;;;12.00;100.00
21824;BME280;11074;48.596;9.238;2023-10-19T02:52:03;96463.34;;;12.01;100.00
21824;BME280;11074;48.596;9.238;2023-10-19T02:54:30;96461.13;;;12.03;100.00
21824;BME280;11074;48.596;9.238;2023-10-19T02:56:59;96472.84;;;12.07;100.00
21824;BME280;11074;48.596;9.238;2023-10-19T02:59:27;96458.38;;;11.95;100.00
21824;BME280;11074;48.596;9.238;2023-10-19T03:01:57;96464.13;;;12.02;100.00
21824;BME280;11074;48.596;9.238;2023-10-19T03:04:39;96455.78;;;12.03;100.00
21824;BME280;11074;48.596;9.238;2023-10-19T03:07:06;96456.09;;;12.02;100.00
21824;BME280;11074;48.596;9.238;2023-10-19T03:09:41;96456.50;;;11.95;100.00
21824;BME280;11074;48.596;9.238;2023-10-19T03:12:21;96452.13;;;11.99;100.00
21824;BME280;11074;48.596;9.238;2023-10-19T03:14:50;96443.63;;;11.97;100.00
21824;BME280;11074;48.596;9.238;2023-10-19T03:17:16;96456.91;;;12.02;100.00
21824;BME280;11074;48.596;9.238;2023-10-19T03:19:42;96439.53;;;12.00;100.00
21824;BME280;11074;48.596;9.238;2023-10-19T03:22:07;96439.03;;;11.98;100.00
21824;BME280;11074;48.596;9.238;2023-10-19T03:24:35;96446.09;;;11.94;100.00
21824;BME280;11074;48.596;9.238;2023-10-19T03:27:15;96439.38;;;11.83;100.00
21824;BME280;11074;48.596;9.238;2023-10-19T03:29:48;96453.34;;;11.93;100.00
21824;BME280;11074;48.596;9.238;2023-10-19T03:32:21;96447.97;;;11.93;100.00
21824;BME280;11074;48.596;9.238;2023-10-19T03:34:57;96441.66;;;11.89;100.00
21824;BME280;11074;48.596;9.238;2023-10-19T03:37:23;96447.97;;;11.93;100.00
21824;BME280;11074;48.596;9.238;2023-10-19T03:39:51;96440.66;;;11.85;100.00
21824;BME280;11074;48.596;9.238;2023-10-19T03:42:17;96438.19;;;11.89;100.00
21824;BME280;11074;48.596;9.238;2023-10-19T03:44:43;96445.75;;;11.87;100.00
21824;BME280;11074;48.596;9.238;2023-10-19T03:47:09;96443.94;;;11.82;100.00
21824;BME280;11074;48.596;9.238;2023-10-19T03:49:38;96441.28;;;11.82;100.00
21824;BME280;11074;48.596;9.238;2023-10-19T03:52:06;96438.13;;;11.80;100.00
21824;BME280;11074;48.596;9.238;2023-10-19T03:54:35;96429.88;;;11.77;100.00
21824;BME280;11074;48.596;9.238;2023-10-19T03:57:05;96429.28;;;11.80;100.00
21824;BME280;11074;48.596;9.238;2023-10-19T03:59:32;96424.03;;;11.75;100.00
21824;BME280;11074;48.596;9.238;2023-10-19T04:02:00;96432.47;;;11.68;100.00
21824;BME280;11074;48.596;9.238;2023-10-19T04:04:31;96420.47;;;11.66;100.00
21824;BME280;11074;48.596;9.238;2023-10-19T04:06:57;96414.53;;;11.69;100.00
21824;BME280;11074;48.596;9.238;2023-10-19T04:09:25;96402.50;;;11.66;100.00
21824;BME280;11074;48.596;9.238;2023-10-19T04:11:59;96410.97;;;11.73;100.00
21824;BME280;11074;48.596;9.238;2023-10-19T04:14:27;96418.09;;;11.78;100.00
21824;BME280;11074;48.596;9.238;2023-10-19T04:16:56;96401.22;;;11.77;100.00
21824;BME280;11074;48.596;9.238;2023-10-19T04:19:21;96406.66;;;11.86;100.00
21824;BME280;11074;48.596;9.238;2023-10-19T04:21:47;96397.47;;;11.78;100.00
21824;BME280;11074;48.596;9.238;2023-10-19T04:24:13;96406.50;;;11.69;100.00
21824;BME280;11074;48.596;9.238;2023-10-19T04:26:40;96394.50;;;11.66;100.00
21824;BME280;11074;48.596;9.238;2023-10-19T04:29:06;96390.31;;;11.74;100.00
21824;BME280;11074;48.596;9.238;2023-10-19T04:31:37;96392.94;;;11.65;100.00
21824;BME280;11074;48.596;9.238;2023-10-19T04:34:13;96392.94;;;11.65;100.00
21824;BME280;11074;48.596;9.238;2023-10-19T04:36:38;96389.72;;;11.63;100.00
21824;BME280;11074;48.596;9.238;2023-10-19T04:39:05;96396.78;;;11.73;100.00
21824;BME280;11074;48.596;9.238;2023-10-19T04:41:31;96396.91;;;11.54;100.00
21824;BME280;11074;48.596;9.238;2023-10-19T04:43:56;96386.78;;;11.65;100.00
21824;BME280;11074;48.596;9.238;2023-10-19T04:46:24;96385.97;;;11.64;100.00
21824;BME280;11074;48.596;9.238;2023-10-19T04:48:50;96385.66;;;11.66;100.00
21824;BME280;11074;48.596;9.238;2023-10-19T04:51:15;96388.75;;;11.73;100.00
21824;BME280;11074;48.596;9.238;2023-10-19T04:53:42;96376.19;;;11.73;100.00
21824;BME280;11074;48.596;9.238;2023-10-19T04:56:08;96380.25;;;11.71;100.00
21824;BME280;11074;48.596;9.238;2023-10-19T04:58:35;96382.13;;;11.70;100.00
21824;BME280;11074;48.596;9.238;2023-10-19T05:01:01;96379.75;;;11.55;100.00
21824;BME280;11074;48.596;9.238;2023-10-19T05:03:29;96384.00;;;11.56;100.00
21824;BME280;11074;48.596;9.238;2023-10-19T05:05:55;96384.66;;;11.39;100.00
21824;BME280;11074;48.596;9.238;2023-10-19T05:08:24;96372.38;;;11.38;100.00
21824;BME280;11074;48.596;9.238;2023-10-19T05:10:52;96372.94;;;11.49;100.00
21824;BME280;11074;48.596;9.238;2023-10-19T05:13:23;96367.59;;;11.49;100.00
21824;BME280;11074;48.596;9.238;2023-10-19T05:15:51;96372.50;;;11.55;100.00
21824;BME280;11074;48.596;9.238;2023-10-19T05:18:19;96375.88;;;11.61;100.00
21824;BME280;11074;48.596;9.238;2023-10-19T05:20:45;96363.59;;;11.60;100.00
21824;BME280;11074;48.596;9.238;2023-10-19T05:23:11;96362.69;;;11.65;100.00
21824;BME280;11074;48.596;9.238;2023-10-19T05:25:39;96363.78;;;11.64;100.00
21824;BME280;11074;48.596;9.238;2023-10-19T05:28:06;96371.91;;;11.72;100.00
21824;BME280;11074;48.596;9.238;2023-10-19T05:30:33;96372.50;;;11.69;100.00
21824;BME280;11074;48.596;9.238;2023-10-19T05:32:59;96362.59;;;11.70;99.64
21824;BME280;11074;48.596;9.238;2023-10-19T05:35:28;96374.78;;;11.76;99.19
21824;BME280;11074;48.596;9.238;2023-10-19T05:37:55;96369.53;;;11.71;99.70
21824;BME280;11074;48.596;9.238;2023-10-19T05:40:24;96363.56;;;11.74;99.49
21824;BME280;11074;48.596;9.238;2023-10-19T05:42:57;96347.53;;;11.60;100.00
21824;BME280;11074;48.596;9.238;2023-10-19T05:45:24;96359.59;;;11.71;99.75
21824;BME280;11074;48.596;9.238;2023-10-19T05:47:50;96368.31;;;11.77;99.69
21824;BME280;11074;48.596;9.238;2023-10-19T05:50:16;96373.19;;;11.75;99.59
21824;BME280;11074;48.596;9.238;2023-10-19T05:52:43;96354.75;;;11.73;99.58
21824;BME280;11074;48.596;9.238;2023-10-19T05:55:10;96358.19;;;11.74;99.86
21824;BME280;11074;48.596;9.238;2023-10-19T05:57:39;96359.19;;;11.78;99.63
21824;BME280;11074;48.596;9.238;2023-10-19T06:00:10;96357.13;;;11.75;100.00
21824;BME280;11074;48.596;9.238;2023-10-19T06:02:43;96368.91;;;11.74;99.95
21824;BME280;11074;48.596;9.238;2023-10-19T06:05:10;96371.59;;;11.74;99.88
21824;BME280;11074;48.596;9.238;2023-10-19T06:07:36;96373.78;;;11.72;100.00
21824;BME280;11074;48.596;9.238;2023-10-19T06:10:03;96374.78;;;11.76;99.96
21824;BME280;11074;48.596;9.238;2023-10-19T06:12:33;96373.84;;;11.80;99.84
21824;BME280;11074;48.596;9.238;2023-10-19T06:15:00;96365.34;;;11.78;99.81
21824;BME280;11074;48.596;9.238;2023-10-19T06:17:29;96366.22;;;11.74;100.00
21824;BME280;11074;48.596;9.238;2023-10-19T06:19:55;96356.31;;;11.74;100.00
21824;BME280;11074;48.596;9.238;2023-10-19T06:22:21;96360.72;;;11.70;100.00
21824;BME280;11074;48.596;9.238;2023-10-19T06:24:47;96358.72;;;11.76;99.98
21824;BME280;11074;48.596;9.238;2023-10-19T06:27:12;96362.19;;;11.76;100.00
21824;BME280;11074;48.596;9.238;2023-10-19T06:29:38;96352.56;;;11.75;100.00
21824;BME280;11074;48.596;9.238;2023-10-19T06:32:04;96354.63;;;11.78;99.93
21824;BME280;11074;48.596;9.238;2023-10-19T06:34:30;96365.03;;;11.80;100.00
21824;BME280;11074;48.596;9.238;2023-10-19T06:36:55;96366.88;;;11.71;100.00
21824;BME280;11074;48.596;9.238;2023-10-19T06:39:21;96371.59;;;11.74;100.00
21824;BME280;11074;48.596;9.238;2023-10-19T06:41:47;96377.34;;;11.81;100.00
21824;BME280;11074;48.596;9.238;2023-10-19T06:44:14;96374.66;;;11.81;100.00
21824;BME280;11074;48.596;9.238;2023-10-19T06:46:42;96374.47;;;11.77;100.00
21824;BME280;11074;48.596;9.238;2023-10-19T06:49:09;96376.34;;;11.77;100.00
21824;BME280;11074;48.596;9.238;2023-10-19T06:51:35;96353.53;;;11.79;100.00
21824;BME280;11074;48.596;9.238;2023-10-19T06:54:02;96373.84;;;11.80;100.00
21824;BME280;11074;48.596;9.238;2023-10-19T06:56:28;96360.66;;;11.84;100.00
21824;BME280;11074;48.596;9.238;2023-10-19T06:58:54;96364.63;;;11.86;100.00
21824;BME280;11074;48.596;9.238;2023-10-19T07:01:20;96358.28;;;11.82;100.00
21824;BME280;11074;48.596;9.238;2023-10-19T07:03:51;96361.94;;;11.86;100.00
21824;BME280;11074;48.596;9.238;2023-10-19T07:06:19;96367.78;;;11.88;100.00
21824;BME280;11074;48.596;9.238;2023-10-19T07:08:45;96365.91;;;11.89;100.00
21824;BME280;11074;48.596;9.238;2023-10-19T07:11:11;96378.38;;;11.93;100.00
21824;BME280;11074;48.596;9.238;2023-10-19T07:13:38;96373.50;;;11.95;100.00
21824;BME280;11074;48.596;9.238;2023-10-19T07:16:05;96371.00;;;11.99;100.00
21824;BME280;11074;48.596;9.238;2023-10-19T07:18:34;96369.25;;;11.94;100.00
21824;BME280;11074;48.596;9.238;2023-10-19T07:21:02;96368.13;;;11.95;100.00
21824;BME280;11074;48.596;9.238;2023-10-19T07:23:29;96363.75;;;11.99;100.00
21824;BME280;11074;48.596;9.238;2023-10-19T07:25:54;96355.72;;;11.99;100.00
21824;BME280;11074;48.596;9.238;2023-10-19T07:28:22;96361.16;;;12.08;100.00
21824;BME280;11074;48.596;9.238;2023-10-19T07:30:52;96359.25;;;12.08;100.00
21824;BME280;11074;48.596;9.238;2023-10-19T07:33:18;96351.53;;;12.07;100.00
21824;BME280;11074;48.596;9.238;2023-10-19T07:35:50;96357.06;;;12.10;100.00
21824;BME280;11074;48.596;9.238;2023-10-19T07:38:26;96354.88;;;12.12;100.00
21824;BME280;11074;48.596;9.238;2023-10-19T07:40:53;96347.63;;;12.13;100.00
21824;BME280;11074;48.596;9.238;2023-10-19T07:43:20;96349.19;;;12.14;100.00
21824;BME280;11074;48.596;9.238;2023-10-19T07:45:46;96336.78;;;12.18;100.00
21824;BME280;11074;48.596;9.238;2023-10-19T07:48:14;96340.91;;;12.24;100.00
21824;BME280;11074;48.596;9.238;2023-10-19T07:50:40;96344.22;;;12.30;100.00
21824;BME280;11074;48.596;9.238;2023-10-19T07:53:06;96338.41;;;12.28;100.00
21824;BME280;11074;48.596;9.238;2023-10-19T07:55:32;96330.03;;;12.21;100.00
21824;BME280;11074;48.596;9.238;2023-10-19T07:57:59;96343.75;;;12.28;100.00
21824;BME280;11074;48.596;9.238;2023-10-19T08:00:32;96330.41;;;12.36;100.00
21824;BME280;11074;48.596;9.238;2023-10-19T08:03:02;96333.28;;;12.40;100.00
21824;BME280;11074;48.596;9.238;2023-10-19T08:05:28;96338.97;;;12.47;100.00
21824;BME280;11074;48.596;9.238;2023-10-19T08:07:54;96329.34;;;12.46;100.00
21824;BME280;11074;48.596;9.238;2023-10-19T08:10:22;96328.25;;;12.47;100.00
21824;BME280;11074;48.596;9.238;2023-10-19T08:12:49;96328.44;;;12.50;100.00
21824;BME280;11074;48.596;9.238;2023-10-19T08:15:16;96332.16;;;12.41;100.00
21824;BME280;11074;48.596;9.238;2023-10-19T08:17:48;96329.00;;;12.39;100.00
21824;BME280;11074;48.596;9.238;2023-10-19T08:20:15;96339.28;;;12.45;100.00
21824;BME280;11074;48.596;9.238;2023-10-19T08:22:45;96328.06;;;12.43;100.00
21824;BME280;11074;48.596;9.238;2023-10-19T08:25:14;96346.06;;;12.51;100.00
21824;BME280;11074;48.596;9.238;2023-10-19T08:27:46;96333.19;;;12.53;100.00
21824;BME280;11074;48.596;9.238;2023-10-19T08:30:19;96341.22;;;12.62;100.00
21824;BME280;11074;48.596;9.238;2023-10-19T08:32:47;96337.16;;;12.64;100.00
21824;BME280;11074;48.596;9.238;2023-10-19T08:35:21;96336.22;;;12.69;100.00
21824;BME280;11074;48.596;9.238;2023-10-19T08:37:53;96332.13;;;12.71;100.00
21824;BME280;11074;48.596;9.238;2023-10-19T08:40:20;96322.38;;;12.75;100.00
21824;BME280;11074;48.596;9.238;2023-10-19T08:42:47;96325.69;;;12.81;100.00
21824;BME280;11074;48.596;9.238;2023-10-19T08:45:14;96325.06;;;12.84;100.00
21824;BME280;11074;48.596;9.238;2023-10-19T08:48:01;96320.34;;;12.90;100.00
21824;BME280;11074;48.596;9.238;2023-10-19T08:50:30;96318.78;;;12.97;100.00
21824;BME280;11074;48.596;9.238;2023-10-19T08:53:01;96320.41;;;13.07;100.00
21824;BME280;11074;48.596;9.238;2023-10-19T08:55:30;96333.56;;;13.17;100.00
21824;BME280;11074;48.596;9.238;2023-10-19T08:57:57;96329.59;;;13.23;100.00
21824;BME280;11074;48.596;9.238;2023-10-19T09:00:24;96320.63;;;13.27;100.00
21824;BME280;11074;48.596;9.238;2023-10-19T09:02:53;96318.25;;;13.34;100.00
21824;BME280;11074;48.596;9.238;2023-10-19T09:05:20;96325.81;;;13.24;100.00
21824;BME280;11074;48.596;9.238;2023-10-19T09:07:48;96326.91;;;13.23;100.00
21824;BME280;11074;48.596;9.238;2023-10-19T09:10:25;96306.88;;;13.29;100.00
21824;BME280;11074;48.596;9.238;2023-10-19T09:13:05;96314.47;;;13.44;100.00
21824;BME280;11074;48.596;9.238;2023-10-19T09:15:37;96316.50;;;13.47;100.00
21824;BME280;11074;48.596;9.238;2023-10-19T09:18:13;96317.16;;;13.53;100.00
21824;BME280;11074;48.596;9.238;2023-10-19T09:20:44;96308.97;;;13.49;100.00
21824;BME280;11074;48.596;9.238;2023-10-19T09:23:23;96313.69;;;13.61;100.00
21824;BME280;11074;48.596;9.238;2023-10-19T09:25:52;96305.31;;;13.62;100.00
21824;BME280;11074;48.596;9.238;2023-10-19T09:28:21;96306.09;;;13.63;100.00
21824;BME280;11074;48.596;9.238;2023-10-19T09:30:50;96297.41;;;13.66;100.00
21824;BME280;11074;48.596;9.238;2023-10-19T09:33:17;96297.25;;;13.71;100.00
21824;BME280;11074;48.596;9.238;2023-10-19T09:35:46;96285.56;;;13.58;100.00
21824;BME280;11074;48.596;9.238;2023-10-19T09:38:17;96292.03;;;13.74;100.00
21824;BME280;11074;48.596;9.238;2023-10-19T09:40:52;96281.75;;;13.76;100.00
21824;BME280;11074;48.596;9.238;2023-10-19T09:43:45;96289.50;;;13.86;100.00
21824;BME280;11074;48.596;9.238;2023-10-19T09:46:22;96285.69;;;13.96;100.00
21824;BME280;11074;48.596;9.238;2023-10-19T09:48:49;96284.09;;;13.95;100.00
21824;BME280;11074;48.596;9.238;2023-10-19T09:51:16;96279.84;;;13.94;100.00
21824;BME280;11074;48.596;9.238;2023-10-19T09:53:51;96273.06;;;13.88;100.00
21824;BME280;11074;48.596;9.238;2023-10-19T09:56:33;96277.63;;;13.96;100.00
21824;BME280;11074;48.596;9.238;2023-10-19T09:59:06;96285.69;;;13.96;100.00
21824;BME280;11074;48.596;9.238;2023-10-19T10:02:10;96281.22;;;14.00;100.00
21824;BME280;11074;48.596;9.238;2023-10-19T10:04:41;96278.09;;;13.98;100.00
21824;BME280;11074;48.596;9.238;2023-10-19T10:07:08;96274.28;;;13.99;100.00
21824;BME280;11074;48.596;9.238;2023-10-19T10:09:39;96273.00;;;14.05;100.00
21824;BME280;11074;48.596;9.238;2023-10-19T10:14:59;96278.06;;;14.15;100.00
21824;BME280;11074;48.596;9.238;2023-10-19T10:17:28;96279.03;;;14.02;100.00
21824;BME280;11074;48.596;9.238;2023-10-19T10:22:43;96278.34;;;14.14;100.00
21824;BME280;11074;48.596;9.238;2023-10-19T10:25:26;96273.41;;;14.24;100.00
21824;BME280;11074;48.596;9.238;2023-10-19T10:27:54;96271.69;;;14.20;100.00
21824;BME280;11074;48.596;9.238;2023-10-19T10:30:21;96274.09;;;14.13;100.00
21824;BME280;11074;48.596;9.238;2023-10-19T10:32:50;96271.06;;;14.23;100.00
21824;BME280;11074;48.596;9.238;2023-10-19T10:38:08;96265.63;;;14.40;100.00
21824;BME280;11074;48.596;9.238;2023-10-19T10:40:48;96268.03;;;14.41;100.00
21824;BME280;11074;48.596;9.238;2023-10-19T10:43:16;96267.06;;;14.37;100.00
21824;BME280;11074;48.596;9.238;2023-10-19T10:45:43;96262.28;;;14.51;100.00
21824;BME280;11074;48.596;9.238;2023-10-19T10:48:17;96266.81;;;14.60;100.00
21824;BME280;11074;48.596;9.238;2023-10-19T10:50:43;96270.00;;;14.53;100.00
21824;BME280;11074;48.596;9.238;2023-10-19T10:53:13;96261.34;;;14.47;100.00
21824;BME280;11074;48.596;9.238;2023-10-19T10:55:39;96268.59;;;14.55;100.00
21824;BME280;11074;48.596;9.238;2023-10-19T10:58:05;96263.50;;;14.63;100.00
21824;BME280;11074;48.596;9.238;2023-10-19T11:00:31;96269.97;;;14.62;100.00
21824;BME280;11074;48.596;9.238;2023-10-19T11:03:06;96274.91;;;14.60;100.00
21824;BME280;11074;48.596;9.238;2023-10-19T11:05:33;96265.94;;;14.47;100.00
21824;BME280;11074;48.596;9.238;2023-10-19T11:08:16;96269.25;;;14.52;100.00
21824;BME280;11074;48.596;9.238;2023-10-19T11:10:45;96265.38;;;14.62;100.00
21824;BME280;11074;48.596;9.238;2023-10-19T11:13:17;96265.84;;;14.64;100.00
21824;BME280;11074;48.596;9.238;2023-10-19T11:15:54;96254.97;;;14.61;100.00
21824;BME280;11074;48.596;9.238;2023-10-19T11:18:37;96267.94;;;14.58;100.00
21824;BME280;11074;48.596;9.238;2023-10-19T11:21:06;96269.38;;;14.56;100.00
21824;BME280;11074;48.596;9.238;2023-10-19T11:23:42;96277.50;;;14.47;100.00
21824;BME280;11074;48.596;9.238;2023-10-19T11:26:13;96261.19;;;14.52;100.00
21824;BME280;11074;48.596;9.238;2023-10-19T11:28:40;96268.44;;;14.52;100.00
21824;BME280;11074;48.596;9.238;2023-10-19T11:31:23;96247.56;;;14.49;100.00
21824;BME280;11074;48.596;9.238;2023-10-19T11:33:51;96257.31;;;14.62;100.00
21824;BME280;11074;48.596;9.238;2023-10-19T11:36:19;96252.53;;;14.68;100.00
21824;BME280;11074;48.596;9.238;2023-10-19T11:38:48;96254.78;;;14.66;100.00
21824;BME280;11074;48.596;9.238;2023-10-19T11:41:15;96249.22;;;14.71;100.00
21824;BME280;11074;48.596;9.238;2023-10-19T11:43:44;96247.38;;;14.83;100.00
21824;BME280;11074;48.596;9.238;2023-10-19T11:46:11;96243.78;;;14.79;100.00
21824;BME280;11074;48.596;9.238;2023-10-19T11:48:48;96251.31;;;14.86;100.00
21824;BME280;11074;48.596;9.238;2023-10-19T11:51:14;96248.00;;;14.89;100.00
21824;BME280;11074;48.596;9.238;2023-10-19T11:53:41;96245.03;;;14.82;100.00
21824;BME280;11074;48.596;9.238;2023-10-19T11:56:10;96231.19;;;14.92;100.00
21824;BME280;11074;48.596;9.238;2023-10-19T11:58:39;96227.22;;;14.98;100.00
21824;BME280;11074;48.596;9.238;2023-10-19T12:01:08;96224.81;;;14.96;100.00
21824;BME280;11074;48.596;9.238;2023-10-19T12:03:38;96211.06;;;14.98;100.00
21824;BME280;11074;48.596;9.238;2023-10-19T12:06:10;96211.66;;;15.03;100.00
21824;BME280;11074;48.596;9.238;2023-10-19T12:08:37;96208.75;;;15.08;100.00
21824;BME280;11074;48.596;9.238;2023-10-19T12:11:04;96192.69;;;15.00;100.00
21824;BME280;11074;48.596;9.238;2023-10-19T12:13:35;96182.81;;;15.04;100.00
21824;BME280;11074;48.596;9.238;2023-10-19T12:16:01;96181.91;;;15.00;100.00
21824;BME280;11074;48.596;9.238;2023-10-19T12:18:30;96161.91;;;14.89;100.00
21824;BME280;11074;48.596;9.238;2023-10-19T12:20:55;96147.19;;;14.86;100.00
21824;BME280;11074;48.596;9.238;2023-10-19T12:23:28;96138.63;;;14.93;100.00
21824;BME280;11074;48.596;9.238;2023-10-19T12:25:56;96142.28;;;14.88;100.00
21824;BME280;11074;48.596;9.238;2023-10-19T12:28:22;96135.31;;;14.87;100.00
21824;BME280;11074;48.596;9.238;2023-10-19T12:30:50;96153.38;;;14.87;100.00
21824;BME280;11074;48.596;9.238;2023-10-19T12:33:16;96155.25;;;14.86;100.00
21824;BME280;11074;48.596;9.238;2023-10-19T12:35:43;96178.63;;;14.94;100.00
21824;BME280;11074;48.596;9.238;2023-10-19T12:38:19;96174.25;;;14.90;100.00
21824;BME280;11074;48.596;9.238;2023-10-19T12:40:50;96178.78;;;14.98;100.00
21824;BME280;11074;48.596;9.238;2023-10-19T12:43:20;96170.81;;;15.01;100.00
21824;BME280;11074;48.596;9.238;2023-10-19T12:45:49;96169.34;;;15.04;100.00
21824;BME280;11074;48.596;9.238;2023-10-19T12:48:23;96165.56;;;15.05;100.00
21824;BME280;11074;48.596;9.238;2023-10-19T12:50:55;96160.53;;;15.03;100.00
21824;BME280;11074;48.596;9.238;2023-10-19T12:53:21;96160.31;;;15.08;100.00
21824;BME280;11074;48.596;9.238;2023-10-19T12:55:50;96170.94;;;15.05;100.00
21824;BME280;11074;48.596;9.238;2023-10-19T12:58:18;96166.66;;;15.04;100.00
21824;BME280;11074;48.596;9.238;2023-10-19T13:00:46;96171.19;;;15.12;100.00
21824;BME280;11074;48.596;9.238;2023-10-19T13:03:15;96163.59;;;15.14;100.00
21824;BME280;11074;48.596;9.238;2023-10-19T13:05:44;96151.97;;;15.22;100.00
21824;BME280;11074;48.596;9.238;2023-10-19T13:08:14;96153.22;;;15.25;100.00
21824;BME280;11074;48.596;9.238;2023-10-19T13:10:42;96157.91;;;15.28;100.00
21824;BME280;11074;48.596;9.238;2023-10-19T13:13:10;96144.13;;;15.29;100.00